Time;durP1;ratioP1;P1;durP2;ratioP2;P2;SDS_P1;SDS_P2;PMS_P1;PMS_P2;Temp;Humidity;BMP_temperature;BMP_pressure;BME280_temperature;BME280_humidity;BME280_pressure;Samples;Min_cycle;Max_cycle;Signal;HPM_P1;HPM_P2
2022/07/29 00:01:48;;;;;;;2.22;1.60;;;;;;;19.49;52.84;100822.22;4992849;28;20006;-67
2022/07/29 00:04:13;;;;;;;2.58;1.50;;;;;;;19.53;52.54;100821.63;4996719;28;20431;-65
2022/07/29 00:06:39;;;;;;;2.45;1.40;;;;;;;19.47;53.13;100816.19;4962888;28;20025;-68
2022/07/29 00:09:04;;;;;;;4.47;1.45;;;;;;;19.46;52.51;100812.69;4996629;28;20041;-68
2022/07/29 00:11:30;;;;;;;5.63;1.45;;;;;;;19.35;53.07;100818.56;4961430;28;20041;-67
2022/07/29 00:13:55;;;;;;;2.70;1.30;;;;;;;19.25;53.37;100818.03;4961274;28;20877;-67
2022/07/29 00:16:21;;;;;;;4.47;1.30;;;;;;;19.28;53.00;100817.69;4985233;28;20026;-67
2022/07/29 00:18:46;;;;;;;4.43;1.50;;;;;;;19.18;54.19;100813.47;4978731;28;20050;-68
2022/07/29 00:21:11;;;;;;;5.18;1.25;;;;;;;19.16;53.87;100794.06;4977677;28;20018;-68
2022/07/29 00:23:37;;;;;;;2.65;1.25;;;;;;;19.23;54.34;100802.16;5014427;28;20025;-67
2022/07/29 00:26:02;;;;;;;1.92;1.30;;;;;;;19.14;54.71;100800.63;5001146;28;20013;-68
2022/07/29 00:28:28;;;;;;;3.08;1.20;;;;;;;19.10;54.95;100800.16;4990978;28;20037;-64
2022/07/29 00:30:54;;;;;;;3.15;1.40;;;;;;;19.12;55.43;100798.16;5015722;28;20032;-68
2022/07/29 00:33:19;;;;;;;5.78;1.52;;;;;;;18.95;56.04;100796.72;5023427;28;20025;-69
2022/07/29 00:35:44;;;;;;;2.75;1.30;;;;;;;18.90;55.32;100799.97;5012837;28;19998;-67
2022/07/29 00:38:14;;;;;;;2.65;1.23;;;;;;;18.86;55.71;100793.31;5010128;28;20829;-68
2022/07/29 00:40:40;;;;;;;3.25;1.45;;;;;;;18.83;55.81;100780.28;4963480;28;20079;-68
2022/07/29 00:43:05;;;;;;;3.33;1.48;;;;;;;18.82;56.21;100782.13;4969630;28;20018;-66
2022/07/29 00:45:31;;;;;;;1.20;1.13;;;;;;;18.75;56.43;100777.72;4981661;28;20472;-67
2022/07/29 00:47:56;;;;;;;2.10;1.10;;;;;;;18.76;56.62;100782.88;4953412;28;20443;-65
2022/07/29 00:50:22;;;;;;;1.83;1.27;;;;;;;18.77;57.50;100781.88;4970471;28;20753;-67
2022/07/29 00:52:47;;;;;;;1.83;1.33;;;;;;;18.67;57.19;100782.19;4934273;28;20061;-65
2022/07/29 00:55:14;;;;;;;2.67;1.33;;;;;;;18.67;56.86;100784.88;4985987;28;20451;-68
2022/07/29 00:57:40;;;;;;;2.70;1.20;;;;;;;18.63;56.75;100793.47;4954240;28;20088;-67
2022/07/29 01:00:07;;;;;;;16.88;1.70;;;;;;;18.59;57.62;100779.63;4968400;28;20418;-68
2022/07/29 01:02:32;;;;;;;2.33;1.23;;;;;;;18.59;57.50;100770.75;4969109;28;20399;-68
2022/07/29 01:04:58;;;;;;;1.42;1.10;;;;;;;18.62;57.40;100762.31;4970072;28;20059;-65
2022/07/29 01:07:24;;;;;;;2.15;1.20;;;;;;;18.50;57.71;100765.50;4962780;28;20002;-68
2022/07/29 01:09:50;;;;;;;2.40;1.40;;;;;;;18.51;58.03;100767.16;4963753;28;20072;-68
2022/07/29 01:12:21;;;;;;;2.80;1.38;;;;;;;18.56;58.38;100765.75;4964632;28;20037;-67
2022/07/29 01:14:46;;;;;;;2.90;1.40;;;;;;;18.43;58.42;100761.91;4969124;28;20022;-68
2022/07/29 01:17:24;;;;;;;4.22;1.38;;;;;;;18.41;58.76;100757.75;4966560;28;20014;-67
2022/07/29 01:19:57;;;;;;;2.85;1.30;;;;;;;18.33;58.82;100764.88;4967843;28;20018;-67
2022/07/29 01:22:34;;;;;;;1.45;1.35;;;;;;;18.32;58.72;100754.38;4966281;28;20593;-68
2022/07/29 01:25:46;;;;;;;1.83;1.17;;;;;;;18.33;58.73;100761.38;4967563;28;20874;-68
2022/07/29 01:28:30;;;;;;;3.35;1.52;;;;;;;18.22;58.69;100764.53;4960314;28;20018;-66
2022/07/29 01:30:55;;;;;;;;;;;;;;;18.07;58.43;100751.97;4988764;28;20006;-67
2022/07/29 01:36:07;;;;;;;;;;;;;;;18.14;59.36;100744.88;5001597;28;20086;-67
2022/07/29 01:38:32;;;;;;;6.90;1.42;;;;;;;18.07;59.51;100745.81;4982523;28;20335;-67
2022/07/29 01:41:02;;;;;;;3.97;1.45;;;;;;;18.17;59.47;100746.34;4969555;28;20061;-68
2022/07/29 01:43:34;;;;;;;1.88;1.20;;;;;;;18.34;59.51;100733.56;4960067;28;20037;-67
2022/07/29 01:46:03;;;;;;;2.05;1.30;;;;;;;18.38;59.20;100737.53;4958863;28;20014;-65
2022/07/29 01:48:37;;;;;;;4.78;1.38;;;;;;;18.21;59.01;100726.19;4985879;28;20064;-67
2022/07/29 01:51:05;;;;;;;2.03;1.20;;;;;;;18.06;60.14;100730.75;4975105;28;20048;-67
2022/07/29 01:53:32;;;;;;;2.95;1.35;;;;;;;17.95;60.78;100727.53;4984846;28;20105;-67
2022/07/29 01:55:58;;;;;;;3.03;1.40;;;;;;;17.84;60.71;100726.13;4979507;28;21070;-68
2022/07/29 01:58:24;;;;;;;1.30;1.20;;;;;;;17.80;61.10;100727.50;4948140;28;20018;-67
2022/07/29 02:00:49;;;;;;;2.35;1.42;;;;;;;17.74;60.74;100711.34;4958063;28;20010;-68
2022/07/29 02:03:15;;;;;;;4.35;1.50;;;;;;;17.89;60.51;100722.06;4987021;28;20196;-67
2022/07/29 02:05:41;;;;;;;2.45;1.52;;;;;;;17.94;60.48;100722.38;4963837;28;20002;-68
2022/07/29 02:08:06;;;;;;;2.03;1.33;;;;;;;17.91;60.21;100720.03;4952047;28;20213;-67
2022/07/29 02:10:32;;;;;;;2.67;1.40;;;;;;;17.96;60.00;100723.00;4979600;28;20395;-67
2022/07/29 02:12:58;;;;;;;1.50;1.40;;;;;;;18.04;61.11;100722.91;4971857;28;20030;-67
2022/07/29 02:15:28;;;;;;;1.63;1.52;;;;;;;17.94;60.46;100731.22;4950266;28;20037;-66
2022/07/29 02:17:59;;;;;;;3.33;1.42;;;;;;;17.92;60.17;100727.91;4979357;28;20129;-64
2022/07/29 02:20:25;;;;;;;2.70;1.48;;;;;;;17.91;60.13;100730.75;4953030;28;20002;-67
2022/07/29 02:22:50;;;;;;;2.08;1.52;;;;;;;17.86;60.31;100723.25;4934222;28;20014;-67
2022/07/29 02:25:16;;;;;;;2.83;1.55;;;;;;;17.80;60.65;100729.34;4959740;28;20194;-67
2022/07/29 02:27:42;;;;;;;3.35;1.50;;;;;;;17.77;61.27;100722.53;4968691;28;20506;-67
2022/07/29 02:30:08;;;;;;;5.35;1.58;;;;;;;17.75;61.48;100724.53;4990654;28;20284;-67
2022/07/29 02:32:34;;;;;;;1.50;1.40;;;;;;;17.65;62.07;100716.81;4970862;28;20030;-67
2022/07/29 02:34:59;;;;;;;3.30;1.50;;;;;;;17.57;62.49;100730.28;4988269;28;20104;-68
2022/07/29 02:37:25;;;;;;;5.45;1.55;;;;;;;17.65;62.41;100722.16;4958878;28;20080;-66
2022/07/29 02:39:52;;;;;;;2.10;1.58;;;;;;;17.62;62.13;100719.00;4979158;28;20029;-67
2022/07/29 02:42:17;;;;;;;3.10;1.30;;;;;;;17.64;62.72;100730.34;4952164;28;20047;-67
2022/07/29 02:44:43;;;;;;;2.85;1.55;;;;;;;17.60;62.74;100719.19;4973004;28;20022;-67
2022/07/29 02:47:38;;;;;;;3.05;1.58;;;;;;;17.52;63.18;100728.13;4966572;28;20121;-66
2022/07/29 02:50:21;;;;;;;1.50;1.40;;;;;;;17.54;62.99;100721.75;4972821;28;20061;-66
2022/07/29 02:52:52;;;;;;;2.90;1.73;;;;;;;17.51;62.60;100721.13;4967879;28;20559;-66
2022/07/29 02:55:19;;;;;;;3.50;1.42;;;;;;;17.58;62.52;100728.41;4994300;28;20151;-67
2022/07/29 02:57:47;;;;;;;2.28;1.60;;;;;;;17.55;61.89;100720.75;4993461;28;20534;-65
2022/07/29 03:00:13;;;;;;;5.50;1.65;;;;;;;17.49;62.59;100725.81;4975706;28;20030;-64
2022/07/29 03:02:44;;;;;;;2.17;1.50;;;;;;;17.50;63.16;100735.53;4993306;28;20265;-68
2022/07/29 03:05:12;;;;;;;1.80;1.40;;;;;;;17.45;63.75;100737.91;4956044;28;20014;-67
2022/07/29 03:07:38;;;;;;;3.92;1.85;;;;;;;17.46;63.43;100733.41;4985548;28;20028;-67
2022/07/29 03:10:04;;;;;;;1.83;1.70;;;;;;;17.59;63.10;100754.16;4970765;28;20014;-67
2022/07/29 03:12:29;;;;;;;3.75;2.00;;;;;;;17.64;62.81;100757.09;4976946;28;20018;-67
2022/07/29 03:14:55;;;;;;;4.35;2.10;;;;;;;17.72;62.52;100756.22;4997221;28;20017;-67
2022/07/29 03:17:20;;;;;;;5.82;2.20;;;;;;;17.67;60.98;100759.44;4985673;28;20021;-67
2022/07/29 03:19:46;;;;;;;5.28;1.85;;;;;;;17.75;59.57;100755.84;4980006;28;20431;-68
2022/07/29 03:22:11;;;;;;;2.03;1.40;;;;;;;17.82;58.96;100765.63;4960301;28;20006;-67
2022/07/29 03:24:37;;;;;;;3.35;1.70;;;;;;;17.88;58.33;100763.22;4964601;28;20139;-66
2022/07/29 03:27:03;;;;;;;5.78;1.65;;;;;;;17.91;57.65;100770.91;4978288;28;20068;-67
2022/07/29 03:29:28;;;;;;;1.48;1.38;;;;;;;17.99;57.59;100776.16;4967853;28;20347;-66
2022/07/29 03:31:54;;;;;;;4.72;1.92;;;;;;;18.02;58.01;100775.78;4971375;28;20141;-66
2022/07/29 03:34:19;;;;;;;3.00;1.60;;;;;;;18.07;56.99;100776.09;4961444;28;20026;-65
2022/07/29 03:36:45;;;;;;;4.07;1.70;;;;;;;18.05;57.28;100775.44;4988619;28;20017;-67
2022/07/29 03:39:10;;;;;;;4.60;1.80;;;;;;;18.09;57.54;100773.22;4964506;28;20026;-65
2022/07/29 03:41:37;;;;;;;2.85;1.75;;;;;;;18.13;57.37;100779.88;4997429;28;20021;-67
2022/07/29 03:44:02;;;;;;;3.28;1.75;;;;;;;18.18;57.11;100770.25;4985319;28;20014;-67
2022/07/29 03:46:28;;;;;;;10.82;2.00;;;;;;;18.22;56.41;100765.38;4981007;28;20124;-67
2022/07/29 03:48:56;;;;;;;2.97;1.63;;;;;;;18.19;57.02;100773.78;4984295;28;20343;-66
2022/07/29 03:51:21;;;;;;;1.92;1.70;;;;;;;18.28;56.20;100769.97;4979668;28;20018;-67
2022/07/29 03:53:47;;;;;;;4.75;1.73;;;;;;;18.24;55.89;100778.56;4993679;28;20562;-67
2022/07/29 03:56:12;;;;;;;3.03;2.00;;;;;;;18.26;55.68;100779.19;4975626;28;20022;-67
2022/07/29 03:58:37;;;;;;;2.67;2.05;;;;;;;18.24;55.40;100783.94;4942499;28;20010;-67
2022/07/29 04:01:03;;;;;;;4.15;1.70;;;;;;;18.19;55.87;100779.16;4970430;28;20014;-66
2022/07/29 04:03:28;;;;;;;3.65;1.92;;;;;;;18.18;55.63;100774.78;4971233;28;20233;-67
2022/07/29 04:06:00;;;;;;;4.18;1.80;;;;;;;18.23;55.25;100774.22;4967695;28;20025;-67
2022/07/29 04:08:26;;;;;;;2.72;2.00;;;;;;;18.31;54.84;100776.81;4976586;28;20002;-67
2022/07/29 04:10:52;;;;;;;6.30;1.92;;;;;;;18.28;54.85;100777.19;4965078;28;20018;-67
2022/07/29 04:13:18;;;;;;;5.57;2.10;;;;;;;18.27;54.32;100775.53;4985921;28;20099;-67
2022/07/29 04:15:44;;;;;;;4.93;1.77;;;;;;;18.24;54.67;100797.31;4963010;28;20447;-65
2022/07/29 04:18:09;;;;;;;5.75;2.10;;;;;;;18.22;54.62;100788.63;4976421;28;20018;-67
2022/07/29 04:20:35;;;;;;;3.60;2.10;;;;;;;18.26;54.31;100785.41;4948097;28;20026;-65
2022/07/29 04:23:00;;;;;;;4.30;1.75;;;;;;;18.16;54.57;100783.00;4986482;28;20017;-67
2022/07/29 04:25:25;;;;;;;5.45;1.63;;;;;;;18.22;54.01;100785.94;4949736;28;20013;-64
2022/07/29 04:28:00;;;;;;;5.18;2.13;;;;;;;18.23;54.05;100784.94;4988529;28;20041;-67
2022/07/29 04:30:25;;;;;;;2.00;1.80;;;;;;;18.17;54.56;100789.19;4944983;28;20563;-67
2022/07/29 04:32:51;;;;;;;4.72;1.95;;;;;;;18.18;54.97;100780.16;4960540;28;20045;-67
2022/07/29 04:35:16;;;;;;;2.28;1.88;;;;;;;18.18;54.73;100780.16;4986836;28;20441;-67
2022/07/29 04:37:41;;;;;;;2.85;1.80;;;;;;;18.17;54.59;100784.66;4962516;28;20336;-67
2022/07/29 04:40:07;;;;;;;3.45;1.77;;;;;;;18.14;54.84;100778.84;4978538;28;20396;-68
2022/07/29 04:42:33;;;;;;;2.03;1.50;;;;;;;18.17;54.59;100781.97;4948766;28;20137;-68
2022/07/29 04:44:58;;;;;;;5.82;2.03;;;;;;;18.13;54.80;100772.66;4948201;28;20017;-67
2022/07/29 04:47:24;;;;;;;5.53;1.95;;;;;;;18.13;54.13;100772.66;4967220;28;20471;-67
2022/07/29 04:49:49;;;;;;;2.97;1.70;;;;;;;18.13;54.56;100777.19;4965646;28;20014;-67
2022/07/29 04:52:15;;;;;;;2.08;1.58;;;;;;;18.17;54.98;100783.84;4954230;28;20037;-68
2022/07/29 04:54:40;;;;;;;6.35;1.80;;;;;;;18.17;54.59;100786.50;4956942;28;20216;-67
2022/07/29 04:57:05;;;;;;;2.70;1.60;;;;;;;18.17;54.75;100779.31;4968957;28;20808;-67
2022/07/29 04:59:31;;;;;;;2.67;1.58;;;;;;;18.21;54.89;100779.78;4988392;28;20277;-67
2022/07/29 05:01:56;;;;;;;6.30;2.08;;;;;;;18.27;54.65;100784.38;4972013;28;20553;-66
2022/07/29 05:04:22;;;;;;;3.17;1.70;;;;;;;18.30;54.60;100791.22;4988602;28;20033;-66
2022/07/29 05:06:48;;;;;;;8.50;1.77;;;;;;;18.33;53.93;100785.47;4996018;28;20030;-67
2022/07/29 05:09:13;;;;;;;2.80;1.45;;;;;;;18.34;53.94;100789.81;4971363;28;20014;-67
2022/07/29 05:11:39;;;;;;;6.22;1.52;;;;;;;18.34;53.98;100795.19;4970294;28;20389;-65
2022/07/29 05:14:04;;;;;;;3.88;1.80;;;;;;;18.29;54.30;100802.94;4970092;28;20019;-66
2022/07/29 05:16:30;;;;;;;2.25;1.60;;;;;;;18.32;54.26;100800.72;4984209;28;20014;-66
2022/07/29 05:18:55;;;;;;;1.70;1.50;;;;;;;18.36;54.34;100809.25;4979787;28;20041;-67
2022/07/29 05:21:21;;;;;;;1.50;1.40;;;;;;;18.43;54.62;100804.78;4968147;28;20061;-67
2022/07/29 05:23:46;;;;;;;5.47;1.80;;;;;;;18.47;54.54;100806.06;4968623;28;20037;-67
2022/07/29 05:26:11;;;;;;;3.80;1.92;;;;;;;18.54;54.27;100796.25;4973806;28;20056;-67
2022/07/29 05:28:37;;;;;;;3.53;1.58;;;;;;;18.61;54.12;100806.22;4995791;28;20501;-69
2022/07/29 05:31:03;;;;;;;3.17;1.67;;;;;;;18.67;54.27;100810.81;4999510;28;20018;-68
2022/07/29 05:33:28;;;;;;;5.35;1.70;;;;;;;18.60;54.83;100804.56;4954934;28;20862;-67
2022/07/29 05:35:54;;;;;;;4.88;1.70;;;;;;;18.69;54.54;100806.13;4956557;28;20014;-68
2022/07/29 05:38:19;;;;;;;4.03;1.70;;;;;;;18.78;54.36;100812.19;4992584;28;20128;-67
2022/07/29 05:40:44;;;;;;;4.25;1.70;;;;;;;18.87;54.03;100817.28;4960250;28;20013;-67
2022/07/29 05:43:10;;;;;;;1.92;1.75;;;;;;;18.91;54.16;100811.53;4977044;28;20017;-67
2022/07/29 05:45:35;;;;;;;2.33;1.60;;;;;;;18.91;54.42;100809.69;4965927;28;20411;-67
2022/07/29 05:48:01;;;;;;;8.60;1.65;;;;;;;18.96;54.08;100812.63;4975583;28;20317;-68
2022/07/29 05:50:26;;;;;;;4.45;1.85;;;;;;;19.01;54.15;100812.88;4944992;28;20025;-67
2022/07/29 05:52:52;;;;;;;2.75;1.70;;;;;;;19.09;54.14;100814.59;4994005;28;20988;-67
2022/07/29 05:55:17;;;;;;;7.15;1.80;;;;;;;19.12;54.06;100819.59;4989344;28;20010;-65
2022/07/29 05:57:44;;;;;;;6.80;1.70;;;;;;;19.09;53.85;100816.47;4989034;28;20091;-65
2022/07/29 06:00:10;;;;;;;10.20;2.28;;;;;;;19.08;53.62;100834.41;4974151;28;20025;-67
2022/07/29 06:02:35;;;;;;;11.20;1.90;;;;;;;19.19;52.78;100839.28;4957476;28;20424;-69
2022/07/29 06:05:01;;;;;;;6.88;1.65;;;;;;;19.17;53.12;100852.03;4994001;28;21024;-70
2022/07/29 06:07:26;;;;;;;3.95;1.50;;;;;;;19.20;53.49;100865.06;4994318;28;20272;-66
2022/07/29 06:09:51;;;;;;;4.03;1.65;;;;;;;19.25;54.03;100860.97;4970426;28;20010;-66
2022/07/29 06:12:17;;;;;;;2.63;1.83;;;;;;;19.35;54.39;100851.59;4978429;28;20033;-66
2022/07/29 06:14:42;;;;;;;2.92;1.70;;;;;;;19.39;53.63;100849.38;4991161;28;20057;-67
2022/07/29 06:17:08;;;;;;;4.47;1.70;;;;;;;19.50;53.26;100862.28;4971501;28;20080;-67
2022/07/29 06:19:36;;;;;;;8.70;1.73;;;;;;;19.50;53.06;100858.72;4992101;28;20018;-67
2022/07/29 06:22:02;;;;;;;4.35;1.83;;;;;;;19.48;53.63;100853.56;4973632;28;20120;-65
2022/07/29 06:24:27;;;;;;;2.88;1.60;;;;;;;19.56;52.86;100861.47;4994968;28;20888;-66
2022/07/29 06:26:52;;;;;;;6.78;1.38;;;;;;;19.64;52.88;100862.38;4974044;28;20262;-65
2022/07/29 06:29:18;;;;;;;4.15;1.88;;;;;;;19.82;52.24;100865.44;4990759;28;20018;-66
2022/07/29 06:31:43;;;;;;;2.25;1.65;;;;;;;19.81;51.57;100873.69;4972962;28;20045;-65
2022/07/29 06:34:09;;;;;;;2.20;1.50;;;;;;;19.79;51.24;100875.72;4971512;28;20341;-68
2022/07/29 06:36:35;;;;;;;2.95;1.63;;;;;;;19.82;51.48;100867.31;4988666;28;20018;-68
2022/07/29 06:39:01;;;;;;;3.03;1.45;;;;;;;19.92;51.32;100861.59;4991163;28;20029;-67
2022/07/29 06:41:26;;;;;;;4.03;1.63;;;;;;;19.94;51.17;100873.81;4971334;28;20034;-68
2022/07/29 06:43:52;;;;;;;4.95;1.75;;;;;;;19.96;50.95;100868.22;4979945;28;20026;-67
2022/07/29 06:46:18;;;;;;;3.15;1.70;;;;;;;20.00;50.76;100880.25;4975287;28;20028;-66
2022/07/29 06:48:43;;;;;;;3.97;1.60;;;;;;;20.02;51.07;100867.44;4974496;28;20018;-67
2022/07/29 06:51:09;;;;;;;3.38;1.55;;;;;;;20.07;51.30;100881.94;4970141;28;20029;-67
2022/07/29 06:53:35;;;;;;;4.60;1.40;;;;;;;20.05;51.84;100883.16;4995121;28;20071;-67
2022/07/29 06:56:01;;;;;;;7.13;1.63;;;;;;;20.02;51.95;100888.94;4976046;28;20117;-67
2022/07/29 06:58:27;;;;;;;3.55;1.60;;;;;;;20.00;51.24;100883.75;4968301;28;20018;-67
2022/07/29 07:00:52;;;;;;;5.07;1.58;;;;;;;19.93;52.63;100874.00;4958653;28;20079;-67
2022/07/29 07:03:18;;;;;;;2.75;1.70;;;;;;;19.89;54.79;100877.06;4955241;28;20542;-68
2022/07/29 07:05:43;;;;;;;4.53;1.60;;;;;;;19.80;55.60;100872.88;5002073;28;20017;-68
2022/07/29 07:08:09;;;;;;;5.30;1.50;;;;;;;19.84;55.05;100870.59;4980448;28;20189;-68
2022/07/29 07:10:34;;;;;;;3.10;1.55;;;;;;;19.73;55.31;100869.28;4984704;28;20255;-67
2022/07/29 07:13:00;;;;;;;2.97;1.70;;;;;;;19.75;55.76;100864.53;4973141;28;20030;-67
2022/07/29 07:15:26;;;;;;;3.13;1.83;;;;;;;19.71;55.44;100868.63;4941499;28;20475;-67
2022/07/29 07:17:52;;;;;;;3.10;1.30;;;;;;;19.71;55.26;100860.56;4945732;28;20022;-67
2022/07/29 07:20:17;;;;;;;4.90;1.55;;;;;;;19.73;55.87;100863.91;4953817;28;20281;-68
2022/07/29 07:22:43;;;;;;;1.95;1.60;;;;;;;19.67;56.14;100851.22;4957400;28;20309;-68
2022/07/29 07:25:09;;;;;;;6.80;1.67;;;;;;;19.74;55.53;100865.53;4954419;28;20294;-68
2022/07/29 07:27:34;;;;;;;4.03;1.70;;;;;;;19.75;55.35;100872.56;4956637;28;20807;-67
2022/07/29 07:30:00;;;;;;;1.98;1.70;;;;;;;19.73;55.32;100866.59;4955859;28;20494;-67
2022/07/29 07:32:26;;;;;;;3.67;1.83;;;;;;;19.80;55.24;100874.69;4951878;28;20198;-68
2022/07/29 07:34:51;;;;;;;3.13;1.70;;;;;;;19.92;56.02;100875.00;4960559;28;20497;-67
2022/07/29 07:37:19;;;;;;;4.05;1.58;;;;;;;19.98;56.11;100882.28;4965011;28;20258;-67
2022/07/29 07:39:44;;;;;;;4.25;2.13;;;;;;;20.00;56.79;100874.88;4972328;28;20867;-67
2022/07/29 07:42:12;;;;;;;2.22;1.70;;;;;;;19.98;59.25;100867.00;4938460;28;20033;-69
2022/07/29 07:44:37;;;;;;;7.70;2.08;;;;;;;19.99;57.90;100870.53;4975059;28;20496;-67
2022/07/29 07:47:03;;;;;;;6.65;2.10;;;;;;;20.03;59.09;100869.09;4954461;28;20018;-68
2022/07/29 07:49:28;;;;;;;5.07;2.30;;;;;;;20.00;58.58;100872.19;4973037;28;20067;-67
2022/07/29 07:51:54;;;;;;;2.60;2.05;;;;;;;19.99;59.22;100862.47;4965603;28;20091;-67
2022/07/29 07:54:19;;;;;;;3.90;1.92;;;;;;;20.03;60.38;100861.88;4958930;28;20048;-67
2022/07/29 07:56:44;;;;;;;6.50;2.20;;;;;;;20.04;60.82;100871.59;4953967;28;20338;-67
2022/07/29 07:59:10;;;;;;;4.18;2.20;;;;;;;19.96;58.99;100862.88;4955143;28;20236;-67
2022/07/29 08:01:35;;;;;;;5.15;2.00;;;;;;;20.01;60.02;100866.63;4968891;28;20150;-67
2022/07/29 08:04:01;;;;;;;5.57;2.30;;;;;;;19.98;60.19;100869.69;4938063;28;20405;-68
2022/07/29 08:06:26;;;;;;;5.80;1.63;;;;;;;19.98;60.45;100871.53;4937542;28;20224;-67
2022/07/29 08:08:52;;;;;;;6.05;1.95;;;;;;;19.99;59.66;100865.97;4967533;28;20243;-67
2022/07/29 08:11:17;;;;;;;9.55;2.10;;;;;;;19.96;58.51;100869.06;4954905;28;20933;-66
2022/07/29 08:13:42;;;;;;;7.30;2.80;;;;;;;19.99;59.17;100863.28;4964143;28;20086;-64
2022/07/29 08:16:12;;;;;;;3.55;2.10;;;;;;;20.00;59.11;100866.81;4988952;28;20346;-66
2022/07/29 08:18:37;;;;;;;4.68;1.77;;;;;;;19.98;59.60;100852.72;4971160;28;20283;-68
2022/07/29 08:21:03;;;;;;;3.55;1.90;;;;;;;19.96;59.65;100854.81;4955894;28;20263;-68
2022/07/29 08:23:34;;;;;;;2.28;1.95;;;;;;;20.04;59.37;100865.41;4966227;28;20342;-67
2022/07/29 08:26:10;;;;;;;5.97;2.28;;;;;;;20.05;58.58;100873.25;5058889;27;20185;-66
2022/07/29 08:28:38;;;;;;;5.63;2.45;;;;;;;20.03;58.00;100882.53;4983800;28;20239;-67
2022/07/29 08:31:04;;;;;;;5.45;2.08;;;;;;;20.00;59.67;100869.50;4979219;28;20099;-66
2022/07/29 08:33:29;;;;;;;5.20;2.17;;;;;;;19.97;60.31;100877.97;4987399;28;20820;-65
2022/07/29 08:35:55;;;;;;;5.18;2.03;;;;;;;19.97;60.85;100872.59;5022626;27;20017;-66
2022/07/29 08:38:20;;;;;;;7.47;2.10;;;;;;;19.98;62.02;100864.31;5022231;27;20017;-66
2022/07/29 08:40:46;;;;;;;3.33;2.25;;;;;;;20.00;62.78;100864.13;5017740;27;20025;-67
2022/07/29 08:43:11;;;;;;;2.90;2.10;;;;;;;19.96;62.88;100862.88;4984915;28;20362;-66
2022/07/29 08:45:48;;;;;;;6.43;2.45;;;;;;;19.93;63.51;100852.50;4967298;28;20026;-67
2022/07/29 08:48:19;;;;;;;5.47;2.60;;;;;;;19.89;64.44;100854.75;4986074;28;20130;-67
2022/07/29 08:50:45;;;;;;;11.23;2.60;;;;;;;19.81;63.11;100862.94;4986716;28;20005;-66
2022/07/29 08:53:11;;;;;;;6.13;2.53;;;;;;;19.81;63.32;100850.38;4990891;27;20005;-65
2022/07/29 08:55:43;;;;;;;5.80;2.30;;;;;;;19.88;63.60;100853.94;4990560;28;20025;-66
2022/07/29 08:58:09;;;;;;;3.80;1.92;;;;;;;19.93;63.23;100857.88;4989126;28;20120;-65
2022/07/29 09:00:36;;;;;;;3.67;2.10;;;;;;;19.93;62.90;100855.19;4980042;28;20150;-65
2022/07/29 09:03:01;;;;;;;2.42;1.73;;;;;;;19.95;63.07;100856.63;4965954;28;20014;-68
2022/07/29 09:05:27;;;;;;;5.30;2.00;;;;;;;20.00;62.96;100850.69;4982423;27;20453;-67
2022/07/29 09:07:52;;;;;;;2.92;1.90;;;;;;;20.08;62.02;100845.19;5019757;27;20017;-68
2022/07/29 09:10:18;;;;;;;8.50;2.25;;;;;;;20.11;62.31;100842.09;5004084;27;20028;-65
2022/07/29 09:12:43;;;;;;;6.53;2.10;;;;;;;20.17;62.13;100845.84;5009523;27;20016;-65
2022/07/29 09:15:09;;;;;;;5.07;2.30;;;;;;;20.24;62.54;100849.41;4999293;27;20090;-65
2022/07/29 09:17:45;;;;;;;3.42;1.95;;;;;;;20.35;61.37;100856.09;5003379;27;20090;-67
2022/07/29 09:20:18;;;;;;;7.85;2.45;;;;;;;20.34;60.63;100862.47;4983715;27;20020;-67
2022/07/29 09:22:44;;;;;;;2.60;1.88;;;;;;;20.41;61.41;100861.47;4994447;27;20260;-68
2022/07/29 09:25:11;;;;;;;5.00;2.42;;;;;;;20.54;60.77;100857.19;4997776;27;20283;-68
2022/07/29 09:27:36;;;;;;;2.45;2.08;;;;;;;20.71;60.46;100852.31;5018200;27;20263;-67
2022/07/29 09:30:05;;;;;;;8.48;2.28;;;;;;;20.80;59.79;100851.13;4998767;27;20792;-66
2022/07/29 09:32:31;;;;;;;3.80;2.85;;;;;;;20.81;59.59;100860.00;5018632;28;20437;-67
2022/07/29 09:35:16;;;;;;;6.07;2.65;;;;;;;20.84;59.62;100863.16;5014813;28;20164;-65
2022/07/29 09:37:42;;;;;;;6.88;2.70;;;;;;;20.83;58.99;100864.16;5018416;27;20078;-68
2022/07/29 09:40:18;;;;;;;5.70;2.63;;;;;;;20.90;59.30;100864.19;4999351;28;20622;-68
2022/07/29 09:42:44;;;;;;;5.70;2.30;;;;;;;20.93;58.33;100863.78;4991576;28;20004;-67
2022/07/29 09:45:09;;;;;;;12.88;6.15;;;;;;;21.03;57.77;100861.53;5006246;27;20033;-68
2022/07/29 09:47:46;;;;;;;7.70;4.88;;;;;;;21.05;57.72;100866.69;4975888;28;20265;-67
2022/07/29 09:50:12;;;;;;;7.05;6.10;;;;;;;21.14;58.07;100857.41;4985548;27;20508;-67
2022/07/29 09:52:48;;;;;;;4.97;4.47;;;;;;;21.31;58.61;100863.25;4989202;28;20030;-67
2022/07/29 09:55:14;;;;;;;3.10;2.30;;;;;;;21.54;58.26;100860.19;4984967;28;20009;-68
2022/07/29 09:57:39;;;;;;;6.93;2.65;;;;;;;21.70;57.17;100856.25;4987018;28;20559;-68
2022/07/29 10:00:26;;;;;;;5.93;2.47;;;;;;;21.83;57.42;100852.72;4986000;28;20978;-66
2022/07/29 10:02:52;;;;;;;3.00;2.33;;;;;;;22.05;57.19;100856.00;4974261;28;20045;-66
2022/07/29 10:05:19;;;;;;;3.70;2.58;;;;;;;22.10;55.89;100863.47;4971750;27;20676;-66
2022/07/29 10:07:53;;;;;;;10.68;2.60;;;;;;;22.07;57.14;100864.72;4988929;28;20386;-67
2022/07/29 10:10:19;;;;;;;8.95;2.35;;;;;;;22.32;55.49;100860.50;4972139;28;20312;-69
2022/07/29 10:13:11;;;;;;;9.25;2.42;;;;;;;22.49;55.80;100872.50;4975217;28;20127;-66
2022/07/29 10:15:42;;;;;;;7.22;2.90;;;;;;;22.41;55.87;100868.19;4994107;28;20520;-67
2022/07/29 10:18:08;;;;;;;8.43;2.63;;;;;;;22.15;55.90;100866.34;4972032;28;20025;-66
2022/07/29 10:20:33;;;;;;;3.90;2.38;;;;;;;22.09;56.60;100867.19;4990283;28;20870;-64
2022/07/29 10:22:59;;;;;;;4.05;2.40;;;;;;;21.97;57.19;100869.72;5002020;28;20025;-67
2022/07/29 10:25:25;;;;;;;9.88;2.60;;;;;;;22.01;56.71;100867.41;5009898;28;20104;-67
2022/07/29 10:27:53;;;;;;;8.43;2.60;;;;;;;21.96;57.17;100868.84;4988274;28;20054;-65
2022/07/29 10:30:19;;;;;;;6.13;2.65;;;;;;;21.78;57.19;100861.41;4989906;28;20018;-67
2022/07/29 10:32:56;;;;;;;6.88;3.00;;;;;;;21.79;57.09;100867.66;4990272;28;20737;-68
2022/07/29 10:35:43;;;;;;;11.30;2.53;;;;;;;21.89;57.34;100864.53;5005276;27;20714;-65
2022/07/29 10:38:24;;;;;;;7.35;3.00;;;;;;;21.84;57.08;100858.94;4999736;28;20029;-67
2022/07/29 10:41:26;;;;;;;4.90;2.80;;;;;;;21.88;57.15;100861.00;5007091;28;20082;-66
2022/07/29 10:43:53;;;;;;;4.40;2.08;;;;;;;22.02;55.33;100866.38;5002900;28;20264;-68
2022/07/29 10:46:18;;;;;;;5.18;2.90;;;;;;;22.18;56.45;100873.19;4973352;28;20398;-68
2022/07/29 10:49:06;;;;;;;5.05;2.58;;;;;;;22.22;56.63;100869.03;4996808;27;20970;-67
2022/07/29 10:51:50;;;;;;;7.30;3.35;;;;;;;22.36;54.97;100872.56;5006150;27;20121;-67
2022/07/29 10:54:16;;;;;;;6.40;2.85;;;;;;;22.55;54.74;100870.81;5004395;27;20016;-67
2022/07/29 10:56:42;;;;;;;5.50;2.50;;;;;;;22.77;53.84;100868.66;4985685;28;20925;-67
2022/07/29 10:59:19;;;;;;;2.30;2.10;;;;;;;22.90;52.76;100871.31;4986703;28;20257;-68
2022/07/29 11:01:48;;;;;;;5.95;2.55;;;;;;;22.96;53.00;100877.72;4986843;28;20010;-67
2022/07/29 11:04:13;;;;;;;7.30;2.55;;;;;;;22.95;52.59;100879.56;4970070;28;20530;-67
2022/07/29 11:07:04;;;;;;;6.13;2.90;;;;;;;23.04;52.16;100877.47;4949883;28;20290;-67
2022/07/29 11:09:30;;;;;;;11.02;2.55;;;;;;;23.02;51.52;100870.63;4980143;28;20018;-67
2022/07/29 11:11:58;;;;;;;5.18;2.50;;;;;;;23.17;52.88;100868.47;4986769;28;20026;-67
2022/07/29 11:14:58;;;;;;;4.30;2.20;;;;;;;23.33;52.08;100875.22;4950007;28;20341;-67
2022/07/29 11:17:24;;;;;;;5.38;2.30;;;;;;;23.75;51.67;100869.28;4970510;28;20974;-67
2022/07/29 11:19:49;;;;;;;4.72;2.40;;;;;;;24.32;50.47;100864.59;4968927;28;20022;-66
2022/07/29 11:22:34;;;;;;;3.70;2.60;;;;;;;25.23;48.19;100858.44;4966627;28;20213;-68
2022/07/29 11:25:18;;;;;;;6.05;3.25;;;;;;;25.65;47.01;100866.53;4984333;28;20440;-67
2022/07/29 11:27:44;;;;;;;4.03;2.50;;;;;;;25.18;46.89;100866.41;4978225;28;20405;-67
2022/07/29 11:30:11;;;;;;;2.90;2.33;;;;;;;25.09;47.35;100868.63;4968393;28;20205;-67